createdAt,value
2023-05-13T00:01:43.078Z,98726.19
2023-05-13T00:03:47.169Z,98722.31
2023-05-13T00:05:51.719Z,98713.00
2023-05-13T00:07:58.616Z,98707.81
2023-05-13T00:10:06.408Z,98703.94
2023-05-13T00:12:07.998Z,98708.34
2023-05-13T00:14:14.934Z,98697.91
2023-05-13T00:16:16.571Z,98706.69
2023-05-13T00:18:18.130Z,98707.81
2023-05-13T00:20:20.161Z,98703.72
2023-05-13T00:22:21.763Z,98703.97
2023-05-13T00:24:23.501Z,98699.59
2023-05-13T00:26:25.050Z,98703.97
2023-05-13T00:28:26.858Z,98691.63
2023-05-13T00:30:28.543Z,98700.97
2023-05-13T00:32:30.118Z,98691.63
2023-05-13T00:34:31.755Z,98690.25
2023-05-13T00:36:33.197Z,98696.03
2023-05-13T00:38:34.798Z,98703.75
2023-05-13T00:40:39.531Z,98706.75
2023-05-13T00:42:41.225Z,98703.44
2023-05-13T00:44:42.704Z,98701.00
2023-05-13T00:46:44.495Z,98706.75
2023-05-13T00:48:45.969Z,98704.28
2023-05-13T00:50:49.625Z,98707.28
2023-05-13T00:53:14.064Z,98700.44
2023-05-13T00:55:13.863Z,98697.97
2023-05-13T00:57:15.382Z,98701.00
2023-05-13T00:59:20.071Z,98708.41
2023-05-13T01:01:33.266Z,98706.22
2023-05-13T01:04:00.476Z,98703.47
2023-05-13T01:06:11.834Z,98704.56
2023-05-13T01:08:31.008Z,98708.13
2023-05-13T01:10:40.560Z,98707.88
2023-05-13T01:12:44.969Z,98710.63
2023-05-13T01:14:54.935Z,98710.88
2023-05-13T01:17:20.349Z,98710.31
2023-05-13T01:19:45.074Z,98704.00
2023-05-13T01:21:56.344Z,98705.13
2023-05-13T01:23:58.215Z,98708.94
2023-05-13T01:25:59.963Z,98710.88
2023-05-13T01:28:01.831Z,98712.78
2023-05-13T01:30:05.240Z,98708.41
2023-05-13T01:32:12.505Z,98710.31
2023-05-13T01:34:16.006Z,98707.88
2023-05-13T01:36:20.686Z,98710.03
2023-05-13T01:38:24.844Z,98708.41
2023-05-13T01:40:33.046Z,98705.91
2023-05-13T01:42:43.097Z,98714.44
2023-05-13T01:44:47.812Z,98721.00
2023-05-13T01:46:56.530Z,98722.13
2023-05-13T01:48:59.085Z,98723.75
2023-05-13T01:51:03.399Z,98718.53
2023-05-13T01:53:05.145Z,98739.09
2023-05-13T01:55:12.819Z,98733.06
2023-05-13T01:57:18.847Z,98730.59
2023-05-13T01:59:23.258Z,98735.28
2023-05-13T02:01:24.802Z,98727.59
2023-05-13T02:03:27.622Z,98736.88
2023-05-13T02:05:31.756Z,98725.09
2023-05-13T02:07:34.584Z,98726.47
2023-05-13T02:09:36.181Z,98724.00
2023-05-13T02:11:40.904Z,98728.94
2023-05-13T02:13:42.812Z,98720.97
2023-05-13T02:15:44.273Z,98716.81
2023-05-13T02:17:45.996Z,98725.31
2023-05-13T02:19:48.280Z,98727.53
2023-05-13T02:21:52.783Z,98726.69
2023-05-13T02:23:54.439Z,98725.31
2023-05-13T02:25:56.657Z,98724.47
2023-05-13T02:28:00.443Z,98717.63
2023-05-13T02:30:01.977Z,98714.59
2023-05-13T02:32:03.747Z,98716.53
2023-05-13T02:34:12.946Z,98717.59
2023-05-13T02:36:17.412Z,98723.38
2023-05-13T02:38:19.801Z,98727.19
2023-05-13T02:40:22.369Z,98728.56
2023-05-13T02:42:24.773Z,98732.38
2023-05-13T02:44:29.333Z,98730.75
2023-05-13T02:46:37.888Z,98732.38
2023-05-13T02:48:41.751Z,98729.91
2023-05-13T02:50:43.379Z,98727.16
2023-05-13T02:52:47.363Z,98729.34
2023-05-13T02:54:49.265Z,98737.03
2023-05-13T02:56:50.928Z,98736.19
2023-05-13T02:58:52.658Z,98733.47
2023-05-13T03:00:54.235Z,98732.91
2023-05-13T03:02:59.047Z,98737.56
2023-05-13T03:05:00.792Z,98733.44
2023-05-13T03:07:02.362Z,98737.81
2023-05-13T03:09:03.849Z,98729.03
2023-05-13T03:11:07.796Z,98735.88
2023-05-13T03:13:09.277Z,98730.69
2023-05-13T03:15:11.473Z,98732.88
2023-05-13T03:17:13.174Z,98732.28
2023-05-13T03:19:20.408Z,98730.09
2023-05-13T03:21:22.320Z,98732.84
2023-05-13T03:23:26.241Z,98737.75
2023-05-13T03:25:31.352Z,98740.75
2023-05-13T03:27:33.829Z,98736.66
2023-05-13T03:29:40.673Z,98743.47
2023-05-13T03:31:43.090Z,98749.78
2023-05-13T03:33:44.754Z,98747.31
2023-05-13T03:35:49.700Z,98754.13
2023-05-13T03:37:54.051Z,98754.41
2023-05-13T03:39:55.844Z,98756.31
2023-05-13T03:41:59.510Z,98757.44
2023-05-13T03:44:01.961Z,98759.59
2023-05-13T03:46:06.152Z,98752.19
2023-05-13T03:48:09.039Z,98757.97
2023-05-13T03:50:15.742Z,98761.22
2023-05-13T03:52:18.814Z,98757.66
2023-05-13T03:54:23.439Z,98751.91
2023-05-13T03:56:25.316Z,98759.84
2023-05-13T03:58:26.932Z,98765.59
2023-05-13T04:00:28.486Z,98770.25
2023-05-13T04:02:30.136Z,98768.56
2023-05-13T04:04:35.197Z,98767.75
2023-05-13T04:06:36.859Z,98765.28
2023-05-13T04:08:40.498Z,98768.31
2023-05-13T04:10:42.423Z,98773.78
2023-05-13T04:12:43.893Z,98773.19
2023-05-13T04:14:45.361Z,98775.13
2023-05-13T04:16:49.583Z,98771.56
2023-05-13T04:18:51.489Z,98771.81
2023-05-13T04:20:58.975Z,98774.81
2023-05-13T04:23:01.630Z,98777.56
2023-05-13T04:25:07.903Z,98778.63
2023-05-13T04:27:09.710Z,98776.72
2023-05-13T04:29:12.513Z,98778.63
2023-05-13T04:31:14.078Z,98789.59
2023-05-13T04:33:15.778Z,98788.78
2023-05-13T04:35:20.431Z,98794.28
2023-05-13T04:37:27.301Z,98791.78
2023-05-13T04:39:32.647Z,98795.06
2023-05-13T04:41:34.225Z,98784.94
2023-05-13T04:43:38.243Z,98791.53
2023-05-13T04:45:42.147Z,98795.91
2023-05-13T04:47:46.996Z,98802.22
2023-05-13T04:49:48.677Z,98797.56
2023-05-13T04:51:53.518Z,98797.28
2023-05-13T04:53:58.364Z,98792.38
2023-05-13T04:56:02.786Z,98797.84
2023-05-13T04:58:05.350Z,98799.50
2023-05-13T05:00:09.521Z,98795.69
2023-05-13T05:02:15.468Z,98793.50
2023-05-13T05:04:17.074Z,98791.31
2023-05-13T05:06:25.574Z,98787.50
2023-05-13T05:08:28.765Z,98793.25
2023-05-13T05:10:32.058Z,98798.22
2023-05-13T05:12:38.249Z,98802.91
2023-05-13T05:14:44.769Z,98799.63
2023-05-13T05:16:46.439Z,98799.94
2023-05-13T05:18:51.547Z,98803.78
2023-05-13T05:20:54.551Z,98797.50
2023-05-13T05:22:59.950Z,98807.94
2023-05-13T05:25:03.617Z,98812.06
2023-05-13T05:27:06.045Z,98801.94
2023-05-13T05:29:09.756Z,98808.00
2023-05-13T05:31:11.906Z,98803.59
2023-05-13T05:33:14.502Z,98813.78
2023-05-13T05:35:17.512Z,98800.38
2023-05-13T05:37:19.230Z,98808.59
2023-05-13T05:39:20.923Z,98808.09
2023-05-13T05:41:22.810Z,98810.00
2023-05-13T05:43:27.239Z,98814.44
2023-05-13T05:45:28.879Z,98814.72
2023-05-13T05:47:33.754Z,98817.53
2023-05-13T05:49:35.771Z,98816.72
2023-05-13T05:51:37.434Z,98818.63
2023-05-13T05:53:42.168Z,98814.25
2023-05-13T05:55:46.264Z,98817.00
2023-05-13T05:57:51.343Z,98818.97
2023-05-13T05:59:53.432Z,98820.34
2023-05-13T06:01:56.123Z,98808.81
2023-05-13T06:03:57.837Z,98809.09
2023-05-13T06:06:02.485Z,98811.03
2023-05-13T06:08:05.079Z,98823.13
2023-05-13T06:10:08.335Z,98823.13
2023-05-13T06:12:13.276Z,98818.72
2023-05-13T06:14:16.897Z,98820.41
2023-05-13T06:16:20.909Z,98823.97
2023-05-13T06:18:23.003Z,98815.47
2023-05-13T06:20:24.676Z,98817.69
2023-05-13T06:22:26.211Z,98821.50
2023-05-13T06:24:27.730Z,98824.25
2023-05-13T06:26:29.759Z,98821.50
2023-05-13T06:28:31.329Z,98823.19
2023-05-13T06:30:32.955Z,98821.25
2023-05-13T06:32:34.604Z,98819.28
2023-05-13T06:34:36.145Z,98818.72
2023-05-13T06:36:38.868Z,98817.88
2023-05-13T06:38:42.479Z,98818.69
2023-05-13T06:40:45.518Z,98809.03
2023-05-13T06:42:48.262Z,98813.66
2023-05-13T06:44:55.710Z,98809.25
2023-05-13T06:47:05.610Z,98812.22
2023-05-13T06:49:09.925Z,98811.38
2023-05-13T06:51:11.487Z,98811.63
2023-05-13T06:53:15.876Z,98809.94
2023-05-13T06:55:18.850Z,98814.00
2023-05-13T06:57:21.918Z,98800.19
2023-05-13T06:59:24.917Z,98811.69
2023-05-13T07:01:27.233Z,98805.59
2023-05-13T07:03:29.534Z,98804.97
2023-05-13T07:05:42.824Z,98810.69
2023-05-13T07:07:53.116Z,98806.22
2023-05-13T07:09:54.695Z,98792.94
2023-05-13T07:11:56.305Z,98802.22
2023-05-13T07:13:57.887Z,98800.50
2023-05-13T07:15:59.400Z,98796.84
2023-05-13T07:18:03.145Z,98802.53
2023-05-13T07:20:07.519Z,98807.94
2023-05-13T07:22:09.431Z,98804.28
2023-05-13T07:24:11.042Z,98797.00
2023-05-13T07:26:12.577Z,98799.13
2023-05-13T07:28:14.137Z,98799.00
2023-05-13T07:30:18.749Z,98801.63
2023-05-13T07:32:20.369Z,98805.38
2023-05-13T07:34:24.715Z,98808.84
2023-05-13T07:36:29.434Z,98800.44
2023-05-13T07:38:30.881Z,98792.84
2023-05-13T07:40:34.758Z,98796.59
2023-05-13T07:42:37.417Z,98803.94
2023-05-13T07:44:42.769Z,98803.22
2023-05-13T07:46:47.610Z,98809.44
2023-05-13T07:48:49.421Z,98799.34
2023-05-13T07:50:51.233Z,98798.38
2023-05-13T07:52:53.078Z,98799.31
2023-05-13T07:54:55.068Z,98796.19
2023-05-13T07:56:57.369Z,98793.56
2023-05-13T07:58:59.017Z,98795.97
2023-05-13T08:01:02.070Z,98794.72
2023-05-13T08:03:04.077Z,98793.84
2023-05-13T08:05:06.692Z,98793.75
2023-05-13T08:07:10.603Z,98801.13
2023-05-13T08:09:12.706Z,98791.59
2023-05-13T08:11:14.262Z,98796.75
2023-05-13T08:13:15.818Z,98797.16
2023-05-13T08:15:17.823Z,98782.09
2023-05-13T08:17:22.803Z,98785.56
2023-05-13T08:19:24.349Z,98795.09
2023-05-13T08:21:28.630Z,98788.34
2023-05-13T08:23:44.290Z,98790.19
2023-05-13T08:25:47.950Z,98790.91
2023-05-13T08:27:53.801Z,98792.78
2023-05-13T08:29:55.482Z,98787.97
2023-05-13T08:31:57.265Z,98795.66
2023-05-13T08:33:58.897Z,98786.41
2023-05-13T08:36:01.092Z,98786.63
2023-05-13T08:38:06.048Z,98795.13
2023-05-13T08:40:08.221Z,98785.88
2023-05-13T08:42:11.370Z,98783.31
2023-05-13T08:44:15.791Z,98787.09
2023-05-13T08:46:18.813Z,98785.38
2023-05-13T08:48:21.690Z,98781.66
2023-05-13T08:50:23.529Z,98791.00
2023-05-13T08:52:26.271Z,98780.59
2023-05-13T08:54:31.614Z,98782.47
2023-05-13T08:56:33.230Z,98788.19
2023-05-13T08:58:34.772Z,98789.22
2023-05-13T09:00:36.876Z,98791.34
2023-05-13T09:02:38.560Z,98791.03
2023-05-13T09:04:42.341Z,98786.81
2023-05-13T09:06:43.899Z,98791.75
2023-05-13T09:08:46.864Z,98793.88
2023-05-13T09:10:48.582Z,98790.50
2023-05-13T09:12:56.685Z,98788.22
2023-05-13T09:15:01.463Z,98787.63
2023-05-13T09:17:03.562Z,98789.75
2023-05-13T09:19:06.687Z,98784.41
2023-05-13T09:21:33.793Z,98789.31
2023-05-13T09:23:40.617Z,98782.84
2023-05-13T09:25:43.425Z,98790.22
2023-05-13T09:27:50.782Z,98795.94
2023-05-13T09:30:01.832Z,98786.97
2023-05-13T09:32:07.133Z,98790.44
2023-05-13T09:34:08.549Z,98787.34
2023-05-13T09:36:10.215Z,98793.94
2023-05-13T09:38:15.554Z,98792.78
2023-05-13T09:40:17.577Z,98800.78
2023-05-13T09:42:24.132Z,98798.03
2023-05-13T09:44:26.637Z,98795.25
2023-05-13T09:46:28.325Z,98809.13
2023-05-13T09:48:32.158Z,98800.78
2023-05-13T09:50:33.928Z,98800.31
2023-05-13T09:52:45.559Z,98811.69
2023-05-13T09:54:47.131Z,98819.50
2023-05-13T09:56:58.773Z,98813.78
2023-05-13T09:59:02.010Z,98820.75
2023-05-13T10:01:04.667Z,98814.22
2023-05-13T10:03:06.397Z,98819.06
2023-05-13T10:05:09.090Z,98819.69
2023-05-13T10:07:12.352Z,98822.28
2023-05-13T10:09:19.559Z,98826.81
2023-05-13T10:11:23.846Z,98825.31
2023-05-13T10:13:27.156Z,98828.69
2023-05-13T10:15:29.365Z,98818.53
2023-05-13T10:17:32.914Z,98821.91
2023-05-13T10:19:37.970Z,98819.25
2023-05-13T10:21:42.846Z,98825.13
2023-05-13T10:23:45.891Z,98821.81
2023-05-13T10:25:47.714Z,98823.25
2023-05-13T10:27:51.096Z,98826.03
2023-05-13T10:29:54.692Z,98814.44
2023-05-13T10:31:57.317Z,98816.72
2023-05-13T10:33:59.325Z,98815.91
2023-05-13T10:36:28.095Z,98812.81
2023-05-13T10:39:01.352Z,98816.09
2023-05-13T10:41:26.952Z,98814.16
2023-05-13T10:43:30.026Z,98817.09
2023-05-13T10:45:33.443Z,98809.81
2023-05-13T10:47:36.131Z,98813.59
2023-05-13T10:49:39.289Z,98821.00
2023-05-13T10:51:45.958Z,98821.22
2023-05-13T10:53:49.955Z,98817.81
2023-05-13T10:56:02.316Z,98813.59
2023-05-13T10:58:12.081Z,98821.78
2023-05-13T11:00:16.021Z,98823.63
2023-05-13T11:02:23.345Z,98826.56
2023-05-13T11:04:25.086Z,98824.81
2023-05-13T11:06:37.994Z,98829.75
2023-05-13T11:08:45.140Z,98822.09
2023-05-13T11:10:55.301Z,98831.44
2023-05-13T11:13:21.768Z,98834.38
2023-05-13T11:15:23.278Z,98827.38
2023-05-13T11:17:24.907Z,98828.72
2023-05-13T11:19:29.055Z,98826.97
2023-05-13T11:21:32.014Z,98834.31
2023-05-13T11:23:57.633Z,98825.66
2023-05-13T11:26:18.977Z,98824.22
2023-05-13T11:28:56.021Z,98829.16
2023-05-13T11:31:17.275Z,98828.50
2023-05-13T11:33:18.974Z,98823.66
2023-05-13T11:35:31.904Z,98821.06
2023-05-13T11:37:33.544Z,98806.53
2023-05-13T11:39:36.260Z,98814.28
2023-05-13T11:41:40.564Z,98808.91
2023-05-13T11:43:44.788Z,98800.44
2023-05-13T11:45:46.531Z,98810.09
2023-05-13T11:47:48.308Z,98815.00
2023-05-13T11:49:50.421Z,98820.72
2023-05-13T11:51:52.351Z,98812.09
2023-05-13T11:54:00.585Z,98816.19
2023-05-13T11:56:11.101Z,98805.88
2023-05-13T11:58:15.745Z,98805.56
2023-05-13T12:00:17.706Z,98806.91
2023-05-13T12:02:21.820Z,98802.31
2023-05-13T12:04:28.331Z,98811.97
2023-05-13T12:06:31.288Z,98808.56
2023-05-13T12:08:34.306Z,98802.66
2023-05-13T12:10:36.074Z,98805.16
2023-05-13T12:12:40.035Z,98798.94
2023-05-13T12:14:42.396Z,98808.59
2023-05-13T12:16:44.335Z,98811.03
2023-05-13T12:19:15.053Z,98810.72
2023-05-13T12:21:17.400Z,98807.63
2023-05-13T12:23:19.147Z,98812.84
2023-05-13T12:25:32.994Z,98812.03
2023-05-13T12:27:34.596Z,98809.78
2023-05-13T12:29:43.443Z,98822.00
2023-05-13T12:32:06.111Z,98815.63
2023-05-13T12:34:07.854Z,98825.75
2023-05-13T12:36:20.120Z,98828.03
2023-05-13T12:38:24.514Z,98836.38
2023-05-13T12:40:26.805Z,98834.72
2023-05-13T12:42:29.035Z,98831.13
2023-05-13T12:44:31.608Z,98837.31
2023-05-13T12:46:38.192Z,98834.03
2023-05-13T12:48:42.909Z,98832.44
2023-05-13T12:50:44.445Z,98836.66
2023-05-13T12:52:49.108Z,98838.63
2023-05-13T12:54:51.051Z,98839.41
2023-05-13T12:56:52.957Z,98839.03
2023-05-13T12:58:55.022Z,98837.22
2023-05-13T13:00:56.881Z,98830.97
2023-05-13T13:03:00.870Z,98835.84
2023-05-13T13:05:03.393Z,98834.53
2023-05-13T13:07:08.691Z,98836.47
2023-05-13T13:09:10.171Z,98841.81
2023-05-13T13:11:18.234Z,98832.69
2023-05-13T13:13:19.736Z,98834.94
2023-05-13T13:15:21.373Z,98836.09
2023-05-13T13:17:23.103Z,98840.81
2023-05-13T13:19:26.143Z,98832.47
2023-05-13T13:21:27.781Z,98838.34
2023-05-13T13:23:29.305Z,98831.16
2023-05-13T13:25:33.144Z,98833.09
2023-05-13T13:27:39.928Z,98831.78
2023-05-13T13:29:41.887Z,98828.84
2023-05-13T13:31:44.948Z,98828.66
2023-05-13T13:33:46.805Z,98831.22
2023-05-13T13:35:49.630Z,98830.56
2023-05-13T13:37:51.057Z,98826.75
2023-05-13T13:39:52.578Z,98817.44
2023-05-13T13:41:54.530Z,98816.75
2023-05-13T13:43:56.096Z,98822.09
2023-05-13T13:45:57.580Z,98820.13
2023-05-13T13:47:59.901Z,98814.09
2023-05-13T13:50:05.709Z,98812.44
2023-05-13T13:52:08.196Z,98818.53
2023-05-13T13:54:09.649Z,98811.00
2023-05-13T13:56:11.285Z,98807.91
2023-05-13T13:58:13.276Z,98806.78
2023-05-13T14:00:16.085Z,98795.38
2023-05-13T14:02:17.839Z,98808.91
2023-05-13T14:04:23.170Z,98805.84
2023-05-13T14:06:24.842Z,98801.09
2023-05-13T14:08:26.385Z,98812.19
2023-05-13T14:10:27.966Z,98796.38
2023-05-13T14:12:29.671Z,98797.19
2023-05-13T14:14:31.747Z,98793.59
2023-05-13T14:16:33.486Z,98806.97
2023-05-13T14:18:35.112Z,98797.00
2023-05-13T14:20:36.677Z,98792.28
2023-05-13T14:22:38.121Z,98791.44
2023-05-13T14:24:40.019Z,98790.66
2023-05-13T14:26:41.787Z,98789.50
2023-05-13T14:28:43.910Z,98793.44
2023-05-13T14:30:45.479Z,98797.81
2023-05-13T14:32:47.477Z,98795.53
2023-05-13T14:34:49.321Z,98794.41
2023-05-13T14:36:52.386Z,98807.66
2023-05-13T14:38:56.845Z,98795.41
2023-05-13T14:40:58.502Z,98799.22
2023-05-13T14:42:59.965Z,98800.53
2023-05-13T14:45:01.567Z,98802.16
2023-05-13T14:47:04.314Z,98798.59
2023-05-13T14:49:08.154Z,98783.88
2023-05-13T14:51:11.157Z,98787.78
2023-05-13T14:53:12.835Z,98786.16
2023-05-13T14:55:14.466Z,98785.34
2023-05-13T14:57:16.117Z,98782.06
2023-05-13T14:59:17.596Z,98778.47
2023-05-13T15:01:19.637Z,98773.75
2023-05-13T15:03:21.244Z,98771.28
2023-05-13T15:05:22.959Z,98763.44
2023-05-13T15:07:27.463Z,98776.19
2023-05-13T15:09:29.027Z,98768.69
2023-05-13T15:11:30.782Z,98761.00
2023-05-13T15:13:35.257Z,98769.81
2023-05-13T15:15:36.992Z,98769.31
2023-05-13T15:17:38.738Z,98773.75
2023-05-13T15:19:43.168Z,98762.66
2023-05-13T15:21:44.860Z,98757.72
2023-05-13T15:23:46.412Z,98767.19
2023-05-13T15:25:48.439Z,98772.72
2023-05-13T15:27:51.292Z,98763.91
2023-05-13T15:29:53.667Z,98759.81
2023-05-13T15:31:55.586Z,98772.03
2023-05-13T15:33:57.617Z,98763.22
2023-05-13T15:35:59.623Z,98757.50
2023-05-13T15:38:04.106Z,98758.94
2023-05-13T15:40:06.407Z,98755.66
2023-05-13T15:42:10.841Z,98751.25
2023-05-13T15:44:15.072Z,98753.84
2023-05-13T15:46:17.832Z,98753.13
2023-05-13T15:48:19.564Z,98752.34
2023-05-13T15:50:21.292Z,98747.91
2023-05-13T15:52:23.050Z,98751.53
2023-05-13T15:54:24.532Z,98749.03
2023-05-13T15:56:26.022Z,98754.59
2023-05-13T15:58:27.686Z,98747.09
2023-05-13T16:00:29.217Z,98740.72
2023-05-13T16:02:37.441Z,98741.88
2023-05-13T16:04:39.189Z,98745.16
2023-05-13T16:06:43.511Z,98737.16
2023-05-13T16:08:45.599Z,98734.38
2023-05-13T16:10:47.077Z,98739.59
2023-05-13T16:12:48.915Z,98737.94
2023-05-13T16:14:52.854Z,98738.16
2023-05-13T16:16:57.781Z,98742.88
2023-05-13T16:18:59.496Z,98739.59
2023-05-13T16:21:01.149Z,98740.44
2023-05-13T16:23:02.654Z,98742.69
2023-05-13T16:25:06.934Z,98728.31
2023-05-13T16:27:08.507Z,98736.13
2023-05-13T16:29:10.186Z,98739.22
2023-05-13T16:31:11.698Z,98739.72
2023-05-13T16:33:15.946Z,98736.47
2023-05-13T16:35:17.481Z,98733.97
2023-05-13T16:37:18.924Z,98733.47
2023-05-13T16:39:20.437Z,98731.03
2023-05-13T16:41:22.761Z,98735.44
2023-05-13T16:43:24.691Z,98728.28
2023-05-13T16:45:28.484Z,98731.88
2023-05-13T16:47:31.434Z,98736.59
2023-05-13T16:49:32.975Z,98731.03
2023-05-13T16:51:34.474Z,98726.31
2023-05-13T16:53:35.953Z,98732.38
2023-05-13T16:55:37.608Z,98726.81
2023-05-13T16:57:41.609Z,98733.19
2023-05-13T16:59:43.305Z,98736.47
2023-05-13T17:01:44.889Z,98723.41
2023-05-13T17:03:46.900Z,98727.31
2023-05-13T17:05:48.355Z,98730.09
2023-05-13T17:07:49.812Z,98732.16
2023-05-13T17:09:51.335Z,98732.00
2023-05-13T17:11:54.477Z,98740.31
2023-05-13T17:13:55.913Z,98730.00
2023-05-13T17:15:57.456Z,98736.09
2023-05-13T17:17:58.966Z,98738.03
2023-05-13T17:20:00.802Z,98740.47
2023-05-13T17:22:02.850Z,98733.31
2023-05-13T17:24:05.422Z,98739.66
2023-05-13T17:26:06.924Z,98739.66
2023-05-13T17:28:10.574Z,98738.88
2023-05-13T17:30:16.017Z,98736.38
2023-05-13T17:32:17.915Z,98737.84
2023-05-13T17:34:19.938Z,98736.19
2023-05-13T17:36:22.229Z,98745.63
2023-05-13T17:38:24.637Z,98737.94
2023-05-13T17:40:26.498Z,98739.09
2023-05-13T17:42:30.230Z,98740.53
2023-05-13T17:44:31.953Z,98734.78
2023-05-13T17:46:39.797Z,98739.50
2023-05-13T17:48:42.404Z,98748.44
2023-05-13T17:50:44.097Z,98739.31
2023-05-13T17:52:45.723Z,98738.78
2023-05-13T17:54:47.505Z,98735.53
2023-05-13T17:56:50.084Z,98744.47
2023-05-13T17:58:51.493Z,98743.47
2023-05-13T18:00:56.136Z,98741.81
2023-05-13T18:02:58.126Z,98745.72
2023-05-13T18:04:59.735Z,98748.28
2023-05-13T18:07:01.438Z,98745.34
2023-05-13T18:09:03.005Z,98742.38
2023-05-13T18:11:04.708Z,98741.34
2023-05-13T18:13:06.379Z,98741.16
2023-05-13T18:15:08.657Z,98735.41
2023-05-13T18:17:10.357Z,98741.56
2023-05-13T18:19:12.200Z,98744.97
2023-05-13T18:21:14.066Z,98741.50
2023-05-13T18:23:15.668Z,98740.47
2023-05-13T18:25:23.201Z,98741.13
2023-05-13T18:27:25.935Z,98742.34
2023-05-13T18:29:27.723Z,98746.03
2023-05-13T18:31:35.044Z,98744.19
2023-05-13T18:33:36.816Z,98755.03
2023-05-13T18:35:39.950Z,98746.00
2023-05-13T18:37:42.165Z,98745.81
2023-05-13T18:39:46.136Z,98755.03
2023-05-13T18:41:48.698Z,98755.13
2023-05-13T18:43:50.387Z,98754.13
2023-05-13T18:45:51.975Z,98760.25
2023-05-13T18:47:55.676Z,98755.34
2023-05-13T18:49:57.251Z,98760.16
2023-05-13T18:51:59.034Z,98757.19
2023-05-13T18:54:01.269Z,98763.63
2023-05-13T18:56:03.092Z,98765.69
2023-05-13T18:58:04.913Z,98759.63
2023-05-13T19:00:07.131Z,98765.78
2023-05-13T19:02:08.968Z,98767.53
2023-05-13T19:04:12.335Z,98776.09
2023-05-13T19:06:15.690Z,98774.25
2023-05-13T19:08:17.199Z,98774.84
2023-05-13T19:10:22.028Z,98770.25
2023-05-13T19:12:23.845Z,98776.09
2023-05-13T19:14:25.599Z,98784.47
2023-05-13T19:16:27.389Z,98783.38
2023-05-13T19:18:29.240Z,98778.47
2023-05-13T19:20:30.795Z,98780.72
2023-05-13T19:22:32.491Z,98783.56
2023-05-13T19:24:34.204Z,98800.75
2023-05-13T19:26:36.031Z,98799.13
2023-05-13T19:28:38.160Z,98798.88
2023-05-13T19:30:41.235Z,98799.47
2023-05-13T19:32:44.143Z,98802.03
2023-05-13T19:34:45.608Z,98795.19
2023-05-13T19:36:47.507Z,98806.81
2023-05-13T19:38:49.628Z,98801.06
2023-05-13T19:40:54.935Z,98807.19
2023-05-13T19:42:56.596Z,98805.84
2023-05-13T19:44:58.144Z,98804.50
2023-05-13T19:46:59.910Z,98806.47
2023-05-13T19:49:01.474Z,98815.34
2023-05-13T19:51:03.090Z,98812.06
2023-05-13T19:53:04.758Z,98816.25
2023-05-13T19:55:07.902Z,98811.00
2023-05-13T19:57:09.625Z,98819.59
2023-05-13T19:59:11.058Z,98811.91
2023-05-13T20:01:14.749Z,98811.38
2023-05-13T20:03:19.166Z,98815.56
2023-05-13T20:05:20.821Z,98801.81
2023-05-13T20:07:22.681Z,98804.06
2023-05-13T20:09:24.313Z,98801.91
2023-05-13T20:11:26.678Z,98798.31
2023-05-13T20:13:28.345Z,98801.38
2023-05-13T20:15:30.048Z,98807.19
2023-05-13T20:17:31.927Z,98810.53
2023-05-13T20:19:33.501Z,98805.63
2023-05-13T20:21:35.117Z,98800.38
2023-05-13T20:23:36.615Z,98801.81
2023-05-13T20:25:38.107Z,98797.69
2023-05-13T20:27:39.694Z,98799.38
2023-05-13T20:29:43.580Z,98801.63
2023-05-13T20:31:45.120Z,98804.66
2023-05-13T20:33:46.780Z,98803.63
2023-05-13T20:35:51.273Z,98795.34
2023-05-13T20:37:52.956Z,98801.13
2023-05-13T20:39:54.718Z,98804.53
2023-05-13T20:41:57.049Z,98801.22
2023-05-13T20:43:58.517Z,98797.09
2023-05-13T20:46:02.303Z,98798.22
2023-05-13T20:48:04.093Z,98797.16
2023-05-13T20:50:07.150Z,98800.53
2023-05-13T20:52:09.410Z,98793.94
2023-05-13T20:54:13.144Z,98793.44
2023-05-13T20:56:16.816Z,98792.91
2023-05-13T20:58:18.348Z,98797.91
2023-05-13T21:00:20.220Z,98793.25
2023-05-13T21:02:21.882Z,98780.03
2023-05-13T21:04:25.451Z,98789.72
2023-05-13T21:06:27.331Z,98788.38
2023-05-13T21:08:29.117Z,98787.00
2023-05-13T21:10:37.970Z,98784.03
2023-05-13T21:12:40.644Z,98781.03
2023-05-13T21:14:45.193Z,98775.56
2023-05-13T21:16:50.007Z,98781.97
2023-05-13T21:18:51.542Z,98791.13
2023-05-13T21:20:53.260Z,98778.50
2023-05-13T21:22:54.777Z,98778.53
2023-05-13T21:24:56.514Z,98783.84
2023-05-13T21:26:57.981Z,98777.25
2023-05-13T21:28:59.553Z,98782.53
2023-05-13T21:31:01.240Z,98772.06
2023-05-13T21:33:03.100Z,98774.84
2023-05-13T21:35:05.388Z,98771.84
2023-05-13T21:37:08.173Z,98770.50
2023-05-13T21:39:10.612Z,98770.28
2023-05-13T21:41:14.859Z,98778.81
2023-05-13T21:43:16.528Z,98771.94
2023-05-13T21:45:19.430Z,98775.28
2023-05-13T21:47:23.589Z,98770.38
2023-05-13T21:49:25.291Z,98773.38
2023-05-13T21:51:27.143Z,98770.94
2023-05-13T21:53:28.804Z,98778.69
2023-05-13T21:55:34.776Z,98776.75
2023-05-13T21:57:36.344Z,98777.34
2023-05-13T21:59:38.237Z,98771.28
2023-05-13T22:01:39.889Z,98771.91
2023-05-13T22:03:41.956Z,98770.81
2023-05-13T22:05:44.153Z,98774.69
2023-05-13T22:07:46.293Z,98770.56
2023-05-13T22:09:49.672Z,98776.91
2023-05-13T22:11:51.963Z,98773.09
2023-05-13T22:13:53.520Z,98775.59
2023-05-13T22:15:55.215Z,98776.47
2023-05-13T22:17:57.370Z,98771.00
2023-05-13T22:19:58.914Z,98777.06
2023-05-13T22:22:00.588Z,98772.13
2023-05-13T22:24:02.317Z,98778.50
2023-05-13T22:26:04.974Z,98778.25
2023-05-13T22:28:09.970Z,98776.06
2023-05-13T22:30:11.645Z,98782.44
2023-05-13T22:32:17.997Z,98775.00
2023-05-13T22:34:19.616Z,98779.94
2023-05-13T22:36:21.350Z,98775.00
2023-05-13T22:38:22.861Z,98772.28
2023-05-13T22:40:24.621Z,98776.41
2023-05-13T22:42:27.271Z,98775.66
2023-05-13T22:44:28.808Z,98775.38
2023-05-13T22:46:30.394Z,98766.06
2023-05-13T22:48:32.153Z,98764.69
2023-05-13T22:50:36.921Z,98762.75
2023-05-13T22:52:38.446Z,98766.38
2023-05-13T22:54:42.106Z,98761.44
2023-05-13T22:56:43.744Z,98765.03
2023-05-13T22:58:45.969Z,98759.28
2023-05-13T23:00:48.977Z,98749.94
2023-05-13T23:02:50.635Z,98747.22
2023-05-13T23:04:52.729Z,98748.88
2023-05-13T23:06:54.214Z,98741.50
2023-05-13T23:08:55.711Z,98743.66
2023-05-13T23:10:57.642Z,98744.50
2023-05-13T23:12:59.706Z,98739.88
2023-05-13T23:15:01.555Z,98741.25
2023-05-13T23:17:03.203Z,98739.34
2023-05-13T23:19:04.785Z,98739.59
2023-05-13T23:21:10.118Z,98740.19
2023-05-13T23:23:11.699Z,98738.53
2023-05-13T23:25:20.664Z,98734.44
2023-05-13T23:27:22.187Z,98738.03
2023-05-13T23:29:27.459Z,98726.75
2023-05-13T23:31:29.094Z,98730.31
2023-05-13T23:33:30.742Z,98728.09
2023-05-13T23:35:32.508Z,98730.56
2023-05-13T23:37:34.024Z,98724.53
2023-05-13T23:39:35.879Z,98730.88
2023-05-13T23:41:37.442Z,98727.84
2023-05-13T23:43:40.104Z,98734.72
2023-05-13T23:45:41.622Z,98718.53
2023-05-13T23:47:44.466Z,98712.75
2023-05-13T23:49:45.995Z,98713.88
2023-05-13T23:51:47.550Z,98702.34
2023-05-13T23:53:49.627Z,98697.66
2023-05-13T23:55:51.341Z,98708.94
2023-05-13T23:57:52.997Z,98701.25
2023-05-13T23:59:54.573Z,98704.81
